sensor_id;sensor_type;location;lat;lon;timestamp;pressure;altitude;pressure_sealevel;temperature;humidity
13767;BME280;47980;48.794;9.176;2023-05-08T00:02:19;98492.06;;;16.51;100.00
13767;BME280;47980;48.794;9.176;2023-05-08T00:04:50;98495.44;;;16.67;100.00
13767;BME280;47980;48.794;9.176;2023-05-08T00:07:22;98496.78;;;16.57;100.00
13767;BME280;47980;48.794;9.176;2023-05-08T00:09:53;98496.34;;;16.55;100.00
13767;BME280;47980;48.794;9.176;2023-05-08T00:12:25;98497.56;;;16.58;100.00
13767;BME280;47980;48.794;9.176;2023-05-08T00:14:56;98498.75;;;16.41;100.00
13767;BME280;47980;48.794;9.176;2023-05-08T00:17:29;98496.22;;;16.48;100.00
13767;BME280;47980;48.794;9.176;2023-05-08T00:20:01;98500.38;;;16.65;100.00
13767;BME280;47980;48.794;9.176;2023-05-08T00:22:32;98497.84;;;16.53;100.00
13767;BME280;47980;48.794;9.176;2023-05-08T00:25:04;98498.22;;;16.32;100.00
13767;BME280;47980;48.794;9.176;2023-05-08T00:27:36;98498.34;;;16.39;100.00
13767;BME280;47980;48.794;9.176;2023-05-08T00:30:08;98503.06;;;16.46;100.00
13767;BME280;47980;48.794;9.176;2023-05-08T00:32:41;98499.91;;;16.59;100.00
13767;BME280;47980;48.794;9.176;2023-05-08T00:35:13;98503.56;;;16.51;100.00
13767;BME280;47980;48.794;9.176;2023-05-08T00:37:44;98498.75;;;16.41;100.00
13767;BME280;47980;48.794;9.176;2023-05-08T00:40:16;98506.38;;;16.39;100.00
13767;BME280;47980;48.794;9.176;2023-05-08T00:42:47;98505.75;;;16.46;100.00
13767;BME280;47980;48.794;9.176;2023-05-08T00:45:19;98504.19;;;16.45;100.00
13767;BME280;47980;48.794;9.176;2023-05-08T00:47:52;98501.25;;;16.50;100.00
13767;BME280;47980;48.794;9.176;2023-05-08T00:50:24;98511.66;;;16.35;100.00
13767;BME280;47980;48.794;9.176;2023-05-08T00:52:57;98503.28;;;16.37;100.00
13767;BME280;47980;48.794;9.176;2023-05-08T00:55:31;98505.25;;;16.40;100.00
13767;BME280;47980;48.794;9.176;2023-05-08T00:58:03;98505.25;;;16.21;100.00
13767;BME280;47980;48.794;9.176;2023-05-08T01:00:36;98504.34;;;16.32;100.00
13767;BME280;47980;48.794;9.176;2023-05-08T01:03:11;98507.38;;;16.31;100.00
13767;BME280;47980;48.794;9.176;2023-05-08T01:05:43;98505.50;;;16.16;100.00
13767;BME280;47980;48.794;9.176;2023-05-08T01:08:14;98518.06;;;16.11;100.00
13767;BME280;47980;48.794;9.176;2023-05-08T01:10:53;98513.63;;;16.19;100.00
13767;BME280;47980;48.794;9.176;2023-05-08T01:13:33;98515.13;;;16.36;100.00
13767;BME280;47980;48.794;9.176;2023-05-08T01:16:13;98517.88;;;16.40;100.00
13767;BME280;47980;48.794;9.176;2023-05-08T01:18:52;98517.50;;;16.41;100.00
13767;BME280;47980;48.794;9.176;2023-05-08T01:21:29;98514.75;;;16.37;100.00
13767;BME280;47980;48.794;9.176;2023-05-08T01:24:41;98517.59;;;16.25;100.00
13767;BME280;47980;48.794;9.176;2023-05-08T01:33:32;98524.31;;;16.19;100.00
13767;BME280;47980;48.794;9.176;2023-05-08T01:36:13;98523.91;;;16.17;100.00
13767;BME280;47980;48.794;9.176;2023-05-08T01:38:53;98520.34;;;16.29;100.00
13767;BME280;47980;48.794;9.176;2023-05-08T01:41:26;98524.63;;;16.33;100.00
13767;BME280;47980;48.794;9.176;2023-05-08T01:44:08;98529.84;;;16.26;100.00
13767;BME280;47980;48.794;9.176;2023-05-08T01:46:44;98522.16;;;16.25;100.00
13767;BME280;47980;48.794;9.176;2023-05-08T01:49:23;98524.41;;;16.23;100.00
13767;BME280;47980;48.794;9.176;2023-05-08T01:51:58;98524.22;;;16.31;100.00
13767;BME280;47980;48.794;9.176;2023-05-08T01:54:39;98527.31;;;16.33;100.00
13767;BME280;47980;48.794;9.176;2023-05-08T01:57:13;98528.56;;;16.40;100.00
13767;BME280;47980;48.794;9.176;2023-05-08T01:59:48;98526.75;;;16.24;100.00
13767;BME280;47980;48.794;9.176;2023-05-08T02:02:22;98530.13;;;16.21;100.00
13767;BME280;47980;48.794;9.176;2023-05-08T02:04:56;98523.06;;;16.32;100.00
13767;BME280;47980;48.794;9.176;2023-05-08T02:07:28;98529.28;;;16.36;100.00
13767;BME280;47980;48.794;9.176;2023-05-08T02:10:01;98533.88;;;16.36;100.00
13767;BME280;47980;48.794;9.176;2023-05-08T02:12:35;98532.19;;;16.28;100.00
13767;BME280;47980;48.794;9.176;2023-05-08T02:15:09;98529.13;;;16.29;100.00
13767;BME280;47980;48.794;9.176;2023-05-08T02:17:44;98529.28;;;16.17;100.00
13767;BME280;47980;48.794;9.176;2023-05-08T02:20:19;98530.81;;;16.18;100.00
13767;BME280;47980;48.794;9.176;2023-05-08T02:22:51;98525.53;;;16.22;100.00
13767;BME280;47980;48.794;9.176;2023-05-08T02:25:24;98530.28;;;16.28;100.00
13767;BME280;47980;48.794;9.176;2023-05-08T02:27:56;98530.97;;;16.25;100.00
13767;BME280;47980;48.794;9.176;2023-05-08T02:30:28;98528.44;;;16.32;100.00
13767;BME280;47980;48.794;9.176;2023-05-08T02:33:02;98530.97;;;16.25;100.00
13767;BME280;47980;48.794;9.176;2023-05-08T02:35:37;98536.59;;;16.20;100.00
13767;BME280;47980;48.794;9.176;2023-05-08T02:38:11;98543.78;;;16.16;100.00
13767;BME280;47980;48.794;9.176;2023-05-08T02:40:45;98540.91;;;16.25;100.00
13767;BME280;47980;48.794;9.176;2023-05-08T02:43:17;98548.84;;;16.21;100.00
13767;BME280;47980;48.794;9.176;2023-05-08T02:45:58;98545.56;;;16.28;100.00
13767;BME280;47980;48.794;9.176;2023-05-08T02:48:34;98543.44;;;16.37;100.00
13767;BME280;47980;48.794;9.176;2023-05-08T02:51:17;98542.53;;;16.29;100.00
13767;BME280;47980;48.794;9.176;2023-05-08T02:53:54;98540.28;;;16.31;100.00
13767;BME280;47980;48.794;9.176;2023-05-08T02:56:31;98545.03;;;16.22;100.00
13767;BME280;47980;48.794;9.176;2023-05-08T02:59:12;98541.66;;;16.25;100.00
13767;BME280;47980;48.794;9.176;2023-05-08T03:01:51;98543.28;;;16.30;100.00
13767;BME280;47980;48.794;9.176;2023-05-08T03:04:27;98542.13;;;16.27;100.00
13767;BME280;47980;48.794;9.176;2023-05-08T03:07:03;98539.22;;;16.36;100.00
13767;BME280;47980;48.794;9.176;2023-05-08T03:09:38;98539.72;;;16.42;100.00
13767;BME280;47980;48.794;9.176;2023-05-08T03:12:14;98545.97;;;16.30;100.00
13767;BME280;47980;48.794;9.176;2023-05-08T03:14:54;98538.00;;;16.33;100.00
13767;BME280;47980;48.794;9.176;2023-05-08T03:17:29;98542.44;;;16.26;100.00
13767;BME280;47980;48.794;9.176;2023-05-08T03:20:05;98537.38;;;16.21;100.00
13767;BME280;47980;48.794;9.176;2023-05-08T03:22:39;98533.66;;;16.25;100.00
13767;BME280;47980;48.794;9.176;2023-05-08T03:25:15;98530.97;;;16.25;100.00
13767;BME280;47980;48.794;9.176;2023-05-08T03:27:48;98536.31;;;16.25;100.00
13767;BME280;47980;48.794;9.176;2023-05-08T03:30:21;98539.63;;;16.19;100.00
13767;BME280;47980;48.794;9.176;2023-05-08T03:32:56;98530.81;;;16.18;100.00
13767;BME280;47980;48.794;9.176;2023-05-08T03:35:29;98538.00;;;16.33;100.00
13767;BME280;47980;48.794;9.176;2023-05-08T03:38:03;98535.56;;;16.44;100.00
13767;BME280;47980;48.794;9.176;2023-05-08T03:40:35;98534.63;;;16.36;100.00
13767;BME280;47980;48.794;9.176;2023-05-08T03:43:08;98534.56;;;16.13;100.00
13767;BME280;47980;48.794;9.176;2023-05-08T03:45:40;98538.69;;;16.11;100.00
13767;BME280;47980;48.794;9.176;2023-05-08T03:48:12;98538.53;;;16.04;100.00
13767;BME280;47980;48.794;9.176;2023-05-08T03:50:44;98552.47;;;16.29;100.00
13767;BME280;47980;48.794;9.176;2023-05-08T03:53:17;98542.03;;;16.24;100.00
13767;BME280;47980;48.794;9.176;2023-05-08T03:55:48;98547.09;;;16.09;100.00
13767;BME280;47980;48.794;9.176;2023-05-08T03:58:23;98541.66;;;16.06;100.00
13767;BME280;47980;48.794;9.176;2023-05-08T04:01:03;98539.06;;;16.09;100.00
13767;BME280;47980;48.794;9.176;2023-05-08T04:03:53;98538.63;;;16.07;100.00
13767;BME280;47980;48.794;9.176;2023-05-08T04:06:28;98544.13;;;16.15;100.00
13767;BME280;47980;48.794;9.176;2023-05-08T04:09:06;98542.97;;;15.96;100.00
13767;BME280;47980;48.794;9.176;2023-05-08T04:11:41;98546.00;;;15.95;100.00
13767;BME280;47980;48.794;9.176;2023-05-08T04:14:18;98549.94;;;16.01;100.00
13767;BME280;47980;48.794;9.176;2023-05-08T04:16:51;98554.84;;;16.15;100.00
13767;BME280;47980;48.794;9.176;2023-05-08T04:19:27;98553.97;;;16.10;100.00
13767;BME280;47980;48.794;9.176;2023-05-08T04:22:04;98561.66;;;16.12;100.00
13767;BME280;47980;48.794;9.176;2023-05-08T04:24:41;98565.78;;;16.25;100.00
13767;BME280;47980;48.794;9.176;2023-05-08T04:27:14;98561.81;;;16.19;100.00
13767;BME280;47980;48.794;9.176;2023-05-08T04:29:46;98569.72;;;16.31;100.00
13767;BME280;47980;48.794;9.176;2023-05-08T04:32:18;98570.34;;;16.25;100.00
13767;BME280;47980;48.794;9.176;2023-05-08T04:34:50;98572.97;;;16.41;100.00
13767;BME280;47980;48.794;9.176;2023-05-08T04:37:23;98571.28;;;16.32;100.00
13767;BME280;47980;48.794;9.176;2023-05-08T04:39:57;98571.59;;;16.11;100.00
13767;BME280;47980;48.794;9.176;2023-05-08T04:42:29;98572.34;;;16.12;100.00
13767;BME280;47980;48.794;9.176;2023-05-08T04:45:00;98572.09;;;16.17;100.00
13767;BME280;47980;48.794;9.176;2023-05-08T04:47:32;98571.81;;;16.22;100.00
13767;BME280;47980;48.794;9.176;2023-05-08T04:50:04;98575.50;;;16.33;100.00
13767;BME280;47980;48.794;9.176;2023-05-08T04:52:36;98574.25;;;16.11;100.00
13767;BME280;47980;48.794;9.176;2023-05-08T04:55:09;98581.91;;;15.94;100.00
13767;BME280;47980;48.794;9.176;2023-05-08T04:57:40;98583.25;;;16.03;100.00
13767;BME280;47980;48.794;9.176;2023-05-08T05:00:14;98586.38;;;16.05;100.00
13767;BME280;47980;48.794;9.176;2023-05-08T05:02:46;98583.25;;;16.03;100.00
13767;BME280;47980;48.794;9.176;2023-05-08T05:05:17;98583.34;;;16.07;100.00
13767;BME280;47980;48.794;9.176;2023-05-08T05:07:49;98590.47;;;16.19;100.00
13767;BME280;47980;48.794;9.176;2023-05-08T05:10:21;98590.41;;;16.15;100.00
13767;BME280;47980;48.794;9.176;2023-05-08T05:12:53;98591.34;;;16.23;100.00
13767;BME280;47980;48.794;9.176;2023-05-08T05:15:24;98595.69;;;16.47;100.00
13767;BME280;47980;48.794;9.176;2023-05-08T05:17:56;98598.00;;;16.48;100.00
13767;BME280;47980;48.794;9.176;2023-05-08T05:20:27;98604.00;;;16.42;100.00
13767;BME280;47980;48.794;9.176;2023-05-08T05:22:59;98591.41;;;16.26;100.00
13767;BME280;47980;48.794;9.176;2023-05-08T05:25:33;98602.16;;;16.10;100.00
13767;BME280;47980;48.794;9.176;2023-05-08T05:28:04;98596.97;;;16.18;100.00
13767;BME280;47980;48.794;9.176;2023-05-08T05:30:36;98606.78;;;16.29;100.00
13767;BME280;47980;48.794;9.176;2023-05-08T05:33:07;98607.13;;;16.28;100.00
13767;BME280;47980;48.794;9.176;2023-05-08T05:35:39;98606.16;;;16.36;100.00
13767;BME280;47980;48.794;9.176;2023-05-08T05:38:10;98603.56;;;16.40;100.00
13767;BME280;47980;48.794;9.176;2023-05-08T05:40:43;98607.00;;;16.40;100.00
13767;BME280;47980;48.794;9.176;2023-05-08T05:43:15;98611.44;;;16.32;100.00
13767;BME280;47980;48.794;9.176;2023-05-08T05:45:46;98607.84;;;16.25;100.00
13767;BME280;47980;48.794;9.176;2023-05-08T05:48:18;98613.34;;;16.32;100.00
13767;BME280;47980;48.794;9.176;2023-05-08T05:50:49;98612.09;;;16.45;100.00
13767;BME280;47980;48.794;9.176;2023-05-08T05:53:21;98611.19;;;16.57;100.00
13767;BME280;47980;48.794;9.176;2023-05-08T05:55:54;98615.97;;;16.48;100.00
13767;BME280;47980;48.794;9.176;2023-05-08T05:58:25;98617.78;;;16.44;100.00
13767;BME280;47980;48.794;9.176;2023-05-08T06:00:58;98615.34;;;16.35;100.00
13767;BME280;47980;48.794;9.176;2023-05-08T06:03:31;98619.84;;;16.50;100.00
13767;BME280;47980;48.794;9.176;2023-05-08T06:06:02;98616.03;;;16.51;100.00
13767;BME280;47980;48.794;9.176;2023-05-08T06:08:34;98614.34;;;16.63;100.00
13767;BME280;47980;48.794;9.176;2023-05-08T06:11:07;98616.47;;;16.34;100.00
13767;BME280;47980;48.794;9.176;2023-05-08T06:13:39;98605.59;;;16.27;100.00
13767;BME280;47980;48.794;9.176;2023-05-08T06:16:10;98623.66;;;16.14;100.00
13767;BME280;47980;48.794;9.176;2023-05-08T06:18:42;98617.00;;;16.24;100.00
13767;BME280;47980;48.794;9.176;2023-05-08T06:21:13;98618.91;;;16.23;100.00
13767;BME280;47980;48.794;9.176;2023-05-08T06:23:45;98613.78;;;16.34;100.00
13767;BME280;47980;48.794;9.176;2023-05-08T06:26:18;98618.50;;;16.41;100.00
13767;BME280;47980;48.794;9.176;2023-05-08T06:28:50;98623.13;;;16.59;100.00
13767;BME280;47980;48.794;9.176;2023-05-08T06:31:21;98622.97;;;16.72;100.00
13767;BME280;47980;48.794;9.176;2023-05-08T06:33:52;98620.31;;;16.36;100.00
13767;BME280;47980;48.794;9.176;2023-05-08T06:36:24;98630.06;;;16.45;100.00
13767;BME280;47980;48.794;9.176;2023-05-08T06:38:56;98626.50;;;16.56;100.00
13767;BME280;47980;48.794;9.176;2023-05-08T06:41:29;98629.94;;;16.57;100.00
13767;BME280;47980;48.794;9.176;2023-05-08T06:44:00;98634.19;;;16.58;100.00
13767;BME280;47980;48.794;9.176;2023-05-08T06:46:32;98630.03;;;16.60;100.00
13767;BME280;47980;48.794;9.176;2023-05-08T06:49:03;98632.09;;;16.67;100.00
13767;BME280;47980;48.794;9.176;2023-05-08T06:51:35;98635.16;;;16.69;100.00
13767;BME280;47980;48.794;9.176;2023-05-08T06:54:07;98630.56;;;16.50;100.00
13767;BME280;47980;48.794;9.176;2023-05-08T06:56:40;98628.91;;;16.26;100.00
13767;BME280;47980;48.794;9.176;2023-05-08T06:59:12;98629.97;;;16.41;100.00
13767;BME280;47980;48.794;9.176;2023-05-08T07:01:43;98634.41;;;16.33;100.00
13767;BME280;47980;48.794;9.176;2023-05-08T07:04:14;98628.66;;;16.51;100.00
13767;BME280;47980;48.794;9.176;2023-05-08T07:06:46;98631.34;;;16.51;100.00
13767;BME280;47980;48.794;9.176;2023-05-08T07:09:17;98633.56;;;16.29;100.00
13767;BME280;47980;48.794;9.176;2023-05-08T07:11:50;98633.34;;;16.73;100.00
13767;BME280;47980;48.794;9.176;2023-05-08T07:14:22;98638.94;;;16.84;100.00
13767;BME280;47980;48.794;9.176;2023-05-08T07:16:53;98637.63;;;16.58;100.00
13767;BME280;47980;48.794;9.176;2023-05-08T07:19:25;98643.75;;;16.59;100.00
13767;BME280;47980;48.794;9.176;2023-05-08T07:21:56;98639.38;;;16.86;100.00
13767;BME280;47980;48.794;9.176;2023-05-08T07:24:30;98637.69;;;16.97;100.00
13767;BME280;47980;48.794;9.176;2023-05-08T07:27:03;98643.38;;;17.15;100.00
13767;BME280;47980;48.794;9.176;2023-05-08T07:29:34;98644.81;;;16.90;100.00
13767;BME280;47980;48.794;9.176;2023-05-08T07:32:06;98645.38;;;17.18;100.00
13767;BME280;47980;48.794;9.176;2023-05-08T07:34:37;98644.44;;;16.91;100.00
13767;BME280;47980;48.794;9.176;2023-05-08T07:37:09;98650.28;;;16.77;100.00
13767;BME280;47980;48.794;9.176;2023-05-08T07:39:40;98642.97;;;16.94;100.00
13767;BME280;47980;48.794;9.176;2023-05-08T07:42:13;98653.09;;;17.23;100.00
13767;BME280;47980;48.794;9.176;2023-05-08T07:45:01;98650.56;;;17.30;100.00
13767;BME280;47980;48.794;9.176;2023-05-08T07:47:35;98650.22;;;17.32;100.00
13767;BME280;47980;48.794;9.176;2023-05-08T07:50:16;98653.09;;;17.66;100.00
13767;BME280;47980;48.794;9.176;2023-05-08T07:52:50;98657.00;;;17.26;100.00
13767;BME280;47980;48.794;9.176;2023-05-08T07:55:22;98655.09;;;17.49;100.00
13767;BME280;47980;48.794;9.176;2023-05-08T07:58:24;98656.25;;;17.48;100.00
13767;BME280;47980;48.794;9.176;2023-05-08T08:00:58;98657.44;;;17.51;100.00
13767;BME280;47980;48.794;9.176;2023-05-08T08:03:29;98656.50;;;17.63;100.00
13767;BME280;47980;48.794;9.176;2023-05-08T08:06:01;98655.78;;;17.66;100.00
13767;BME280;47980;48.794;9.176;2023-05-08T08:08:32;98652.72;;;17.44;100.00
13767;BME280;47980;48.794;9.176;2023-05-08T08:11:06;98658.38;;;17.39;100.00
13767;BME280;47980;48.794;9.176;2023-05-08T08:13:40;98656.00;;;17.76;100.00
13767;BME280;47980;48.794;9.176;2023-05-08T08:16:16;98658.56;;;17.50;100.00
13767;BME280;47980;48.794;9.176;2023-05-08T08:18:48;98660.59;;;17.56;100.00
13767;BME280;47980;48.794;9.176;2023-05-08T08:21:21;98663.59;;;17.51;100.00
13767;BME280;47980;48.794;9.176;2023-05-08T08:23:53;98666.09;;;17.41;100.00
13767;BME280;47980;48.794;9.176;2023-05-08T08:26:24;98662.34;;;17.68;100.00
13767;BME280;47980;48.794;9.176;2023-05-08T08:32:17;98673.69;;;17.58;100.00
13767;BME280;47980;48.794;9.176;2023-05-08T08:34:59;98670.97;;;17.77;100.00
13767;BME280;47980;48.794;9.176;2023-05-08T08:37:31;98672.22;;;17.84;100.00
13767;BME280;47980;48.794;9.176;2023-05-08T08:40:03;98675.53;;;18.00;97.94
13767;BME280;47980;48.794;9.176;2023-05-08T08:42:35;98668.94;;;17.94;98.47
13767;BME280;47980;48.794;9.176;2023-05-08T08:45:06;98674.50;;;18.08;98.78
13767;BME280;47980;48.794;9.176;2023-05-08T08:47:43;98669.63;;;18.40;99.27
13767;BME280;47980;48.794;9.176;2023-05-08T08:50:19;98673.94;;;18.45;98.33
13767;BME280;47980;48.794;9.176;2023-05-08T08:52:55;98672.09;;;18.26;98.23
13767;BME280;47980;48.794;9.176;2023-05-08T08:55:31;98671.66;;;18.47;97.89
13767;BME280;47980;48.794;9.176;2023-05-08T08:58:11;98669.88;;;18.58;95.76
13767;BME280;47980;48.794;9.176;2023-05-08T09:00:44;98668.91;;;18.43;95.99
13767;BME280;47980;48.794;9.176;2023-05-08T09:03:18;98674.03;;;18.52;94.11
13767;BME280;47980;48.794;9.176;2023-05-08T09:05:50;98677.75;;;18.44;93.96
13767;BME280;47980;48.794;9.176;2023-05-08T09:08:21;98680.16;;;18.26;97.35
13767;BME280;47980;48.794;9.176;2023-05-08T09:10:54;98679.25;;;17.92;98.23
13767;BME280;47980;48.794;9.176;2023-05-08T09:13:27;98673.28;;;18.02;98.55
13767;BME280;47980;48.794;9.176;2023-05-08T09:15:59;98676.38;;;18.04;97.55
13767;BME280;47980;48.794;9.176;2023-05-08T09:18:32;98681.84;;;18.11;96.09
13767;BME280;47980;48.794;9.176;2023-05-08T09:21:04;98681.16;;;18.14;96.01
13767;BME280;47980;48.794;9.176;2023-05-08T09:23:36;98672.91;;;18.26;94.04
13767;BME280;47980;48.794;9.176;2023-05-08T09:26:08;98683.78;;;18.11;92.46
13767;BME280;47980;48.794;9.176;2023-05-08T09:28:39;98671.25;;;18.71;91.92
13767;BME280;47980;48.794;9.176;2023-05-08T09:31:11;98670.88;;;18.73;91.08
13767;BME280;47980;48.794;9.176;2023-05-08T09:33:43;98667.94;;;18.82;91.41
13767;BME280;47980;48.794;9.176;2023-05-08T09:36:24;98664.59;;;18.92;91.11
13767;BME280;47980;48.794;9.176;2023-05-08T09:38:56;98672.31;;;18.67;90.09
13767;BME280;47980;48.794;9.176;2023-05-08T09:41:27;98667.78;;;19.01;91.66
13767;BME280;47980;48.794;9.176;2023-05-08T09:44:00;98674.16;;;18.89;91.87
13767;BME280;47980;48.794;9.176;2023-05-08T09:46:34;98680.78;;;18.99;90.13
13767;BME280;47980;48.794;9.176;2023-05-08T09:49:15;98683.69;;;19.17;90.55
13767;BME280;47980;48.794;9.176;2023-05-08T09:51:51;98678.09;;;19.29;92.30
13767;BME280;47980;48.794;9.176;2023-05-08T09:54:27;98680.38;;;19.64;89.36
13767;BME280;47980;48.794;9.176;2023-05-08T09:56:58;98675.97;;;19.49;87.30
13767;BME280;47980;48.794;9.176;2023-05-08T09:59:30;98680.69;;;19.22;86.03
13767;BME280;47980;48.794;9.176;2023-05-08T10:02:09;98673.78;;;19.21;87.19
13767;BME280;47980;48.794;9.176;2023-05-08T10:04:42;98674.97;;;19.27;86.05
13767;BME280;47980;48.794;9.176;2023-05-08T10:07:14;98680.31;;;19.57;86.20
13767;BME280;47980;48.794;9.176;2023-05-08T10:09:56;98675.94;;;19.83;85.06
13767;BME280;47980;48.794;9.176;2023-05-08T10:12:29;98686.47;;;19.99;82.97
13767;BME280;47980;48.794;9.176;2023-05-08T10:15:01;98684.69;;;20.20;80.55
13767;BME280;47980;48.794;9.176;2023-05-08T10:17:37;98679.78;;;19.85;82.86
13767;BME280;47980;48.794;9.176;2023-05-08T10:20:13;98677.81;;;19.79;82.11
13767;BME280;47980;48.794;9.176;2023-05-08T10:22:47;98681.66;;;20.26;81.11
13767;BME280;47980;48.794;9.176;2023-05-08T10:25:21;98682.81;;;20.28;79.00
13767;BME280;47980;48.794;9.176;2023-05-08T10:27:54;98678.56;;;20.24;78.89
13767;BME280;47980;48.794;9.176;2023-05-08T10:30:29;98680.59;;;19.89;80.75
13767;BME280;47980;48.794;9.176;2023-05-08T10:33:08;98681.66;;;19.40;83.57
13767;BME280;47980;48.794;9.176;2023-05-08T10:35:42;98680.66;;;19.96;80.35
13767;BME280;47980;48.794;9.176;2023-05-08T10:38:16;98683.44;;;20.07;81.08
13767;BME280;47980;48.794;9.176;2023-05-08T10:40:48;98675.88;;;19.76;82.43
13767;BME280;47980;48.794;9.176;2023-05-08T10:43:23;98673.06;;;20.64;76.76
13767;BME280;47980;48.794;9.176;2023-05-08T10:45:56;98676.84;;;20.53;79.45
13767;BME280;47980;48.794;9.176;2023-05-08T10:48:32;98673.78;;;20.54;80.06
13767;BME280;47980;48.794;9.176;2023-05-08T10:51:12;98677.38;;;20.21;79.70
13767;BME280;47980;48.794;9.176;2023-05-08T10:53:51;98675.94;;;20.31;78.72
13767;BME280;47980;48.794;9.176;2023-05-08T10:56:25;98665.22;;;19.86;83.43
13767;BME280;47980;48.794;9.176;2023-05-08T10:58:58;98669.22;;;19.62;82.93
13767;BME280;47980;48.794;9.176;2023-05-08T11:01:30;98670.38;;;20.09;80.64
13767;BME280;47980;48.794;9.176;2023-05-08T11:04:18;98665.09;;;19.72;80.40
13767;BME280;47980;48.794;9.176;2023-05-08T11:06:51;98664.94;;;20.02;83.50
13767;BME280;47980;48.794;9.176;2023-05-08T11:09:27;98660.75;;;20.63;82.40
13767;BME280;47980;48.794;9.176;2023-05-08T11:12:22;98666.38;;;21.21;78.31
13767;BME280;47980;48.794;9.176;2023-05-08T11:15:04;98668.56;;;20.94;74.39
13767;BME280;47980;48.794;9.176;2023-05-08T11:17:52;98662.09;;;21.20;75.10
13767;BME280;47980;48.794;9.176;2023-05-08T11:20:37;98662.09;;;21.12;74.16
13767;BME280;47980;48.794;9.176;2023-05-08T11:23:27;98665.59;;;21.31;70.94
13767;BME280;47980;48.794;9.176;2023-05-08T11:26:03;98669.94;;;21.53;71.67
13767;BME280;47980;48.794;9.176;2023-05-08T11:28:56;98661.25;;;20.90;71.77
13767;BME280;47980;48.794;9.176;2023-05-08T11:31:49;98652.59;;;22.01;69.05
13767;BME280;47980;48.794;9.176;2023-05-08T11:34:56;98649.50;;;21.92;70.04
13767;BME280;47980;48.794;9.176;2023-05-08T11:41:01;98654.53;;;22.15;67.78
13767;BME280;47980;48.794;9.176;2023-05-08T11:46:55;98644.84;;;21.56;69.63
13767;BME280;47980;48.794;9.176;2023-05-08T11:49:28;98648.59;;;21.16;74.44
13767;BME280;47980;48.794;9.176;2023-05-08T11:52:00;98651.34;;;21.27;71.29
13767;BME280;47980;48.794;9.176;2023-05-08T11:54:35;98641.28;;;21.24;73.54
13767;BME280;47980;48.794;9.176;2023-05-08T11:57:08;98645.19;;;21.30;75.32
13767;BME280;47980;48.794;9.176;2023-05-08T11:59:40;98642.44;;;21.19;71.68
13767;BME280;47980;48.794;9.176;2023-05-08T12:02:12;98647.94;;;21.55;70.11
13767;BME280;47980;48.794;9.176;2023-05-08T12:04:45;98642.56;;;22.05;71.31
13767;BME280;47980;48.794;9.176;2023-05-08T12:07:17;98653.34;;;22.41;68.91
13767;BME280;47980;48.794;9.176;2023-05-08T12:09:52;98636.44;;;23.24;61.25
13767;BME280;47980;48.794;9.176;2023-05-08T12:12:36;98643.69;;;22.11;69.01
13767;BME280;47980;48.794;9.176;2023-05-08T12:15:18;98640.94;;;21.29;71.68
13767;BME280;47980;48.794;9.176;2023-05-08T12:18:07;98642.94;;;21.46;70.50
13767;BME280;47980;48.794;9.176;2023-05-08T12:21:00;98640.22;;;22.35;68.36
13767;BME280;47980;48.794;9.176;2023-05-08T12:23:36;98634.69;;;22.78;64.93
13767;BME280;47980;48.794;9.176;2023-05-08T12:26:10;98641.81;;;22.15;63.78
13767;BME280;47980;48.794;9.176;2023-05-08T12:28:55;98639.00;;;22.51;64.60
13767;BME280;47980;48.794;9.176;2023-05-08T12:31:44;98638.69;;;21.84;66.04
13767;BME280;47980;48.794;9.176;2023-05-08T12:34:22;98637.53;;;21.82;67.18
13767;BME280;47980;48.794;9.176;2023-05-08T12:37:04;98637.94;;;21.80;67.76
13767;BME280;47980;48.794;9.176;2023-05-08T12:39:43;98636.41;;;21.69;67.95
13767;BME280;47980;48.794;9.176;2023-05-08T12:42:14;98640.09;;;21.00;69.97
13767;BME280;47980;48.794;9.176;2023-05-08T12:44:50;98637.16;;;21.51;66.61
13767;BME280;47980;48.794;9.176;2023-05-08T12:47:24;98632.50;;;21.55;68.46
13767;BME280;47980;48.794;9.176;2023-05-08T12:49:56;98629.44;;;21.85;68.27
13767;BME280;47980;48.794;9.176;2023-05-08T12:52:28;98630.22;;;21.86;67.01
13767;BME280;47980;48.794;9.176;2023-05-08T12:54:59;98625.94;;;22.03;65.65
13767;BME280;47980;48.794;9.176;2023-05-08T12:57:31;98625.59;;;22.22;64.57
13767;BME280;47980;48.794;9.176;2023-05-08T13:00:05;98630.19;;;22.25;65.66
13767;BME280;47980;48.794;9.176;2023-05-08T13:02:36;98634.81;;;22.28;65.72
13767;BME280;47980;48.794;9.176;2023-05-08T13:05:08;98629.06;;;21.87;66.68
13767;BME280;47980;48.794;9.176;2023-05-08T13:07:39;98633.19;;;22.67;63.91
13767;BME280;47980;48.794;9.176;2023-05-08T13:10:33;98631.16;;;22.99;64.04
13767;BME280;47980;48.794;9.176;2023-05-08T13:13:20;98624.22;;;23.54;60.63
13767;BME280;47980;48.794;9.176;2023-05-08T13:16:04;98620.91;;;23.84;58.92
13767;BME280;47980;48.794;9.176;2023-05-08T13:18:41;98616.47;;;22.90;59.96
13767;BME280;47980;48.794;9.176;2023-05-08T13:21:14;98620.19;;;21.90;64.66
13767;BME280;47980;48.794;9.176;2023-05-08T13:23:54;98629.44;;;21.82;66.03
13767;BME280;47980;48.794;9.176;2023-05-08T13:26:29;98621.25;;;21.10;68.38
13767;BME280;47980;48.794;9.176;2023-05-08T13:29:04;98616.56;;;20.97;75.57
13767;BME280;47980;48.794;9.176;2023-05-08T13:32:01;98620.69;;;20.65;78.02
13767;BME280;47980;48.794;9.176;2023-05-08T13:34:40;98616.81;;;20.59;79.36
13767;BME280;47980;48.794;9.176;2023-05-08T13:37:21;98618.16;;;20.28;79.62
13767;BME280;47980;48.794;9.176;2023-05-08T13:40:00;98612.97;;;19.98;81.76
13767;BME280;47980;48.794;9.176;2023-05-08T13:42:41;98618.56;;;19.79;84.14
13767;BME280;47980;48.794;9.176;2023-05-08T13:45:12;98603.47;;;19.67;83.81
13767;BME280;47980;48.794;9.176;2023-05-08T13:47:46;98601.91;;;19.62;85.45
13767;BME280;47980;48.794;9.176;2023-05-08T13:50:18;98599.59;;;19.61;84.55